sensor_id;sensor_type;location;lat;lon;timestamp;temperature;humidity
74513;DHT22;62992;52.052;8.550;2022-11-20T00:01:33;-3.00;99.90
74513;DHT22;62992;52.052;8.550;2022-11-20T00:04:17;-3.10;99.90
74513;DHT22;62992;52.052;8.550;2022-11-20T00:07:01;-3.10;99.90
74513;DHT22;62992;52.052;8.550;2022-11-20T00:09:46;-3.10;99.90
74513;DHT22;62992;52.052;8.550;2022-11-20T00:12:30;-3.10;99.90
74513;DHT22;62992;52.052;8.550;2022-11-20T00:15:14;-3.10;99.90
74513;DHT22;62992;52.052;8.550;2022-11-20T00:17:58;-3.20;99.90
74513;DHT22;62992;52.052;8.550;2022-11-20T00:20:42;-3.10;99.90
74513;DHT22;62992;52.052;8.550;2022-11-20T00:23:26;-3.20;99.90
74513;DHT22;62992;52.052;8.550;2022-11-20T00:26:12;-3.20;99.90
74513;DHT22;62992;52.052;8.550;2022-11-20T00:28:58;-3.20;99.90
74513;DHT22;62992;52.052;8.550;2022-11-20T00:31:43;-3.20;99.90
74513;DHT22;62992;52.052;8.550;2022-11-20T00:34:27;-3.30;99.90
74513;DHT22;62992;52.052;8.550;2022-11-20T00:37:11;-3.40;99.90
74513;DHT22;62992;52.052;8.550;2022-11-20T00:39:55;-3.40;99.90
74513;DHT22;62992;52.052;8.550;2022-11-20T00:42:39;-3.40;99.90
74513;DHT22;62992;52.052;8.550;2022-11-20T00:45:23;-3.50;99.90
74513;DHT22;62992;52.052;8.550;2022-11-20T00:48:07;-3.40;99.90
74513;DHT22;62992;52.052;8.550;2022-11-20T00:50:52;-3.50;99.90
74513;DHT22;62992;52.052;8.550;2022-11-20T00:53:36;-3.40;99.90
74513;DHT22;62992;52.052;8.550;2022-11-20T00:56:20;-3.50;99.90
74513;DHT22;62992;52.052;8.550;2022-11-20T00:59:04;-3.50;99.90
74513;DHT22;62992;52.052;8.550;2022-11-20T01:01:48;-3.50;99.90
74513;DHT22;62992;52.052;8.550;2022-11-20T01:04:32;-3.60;99.90
74513;DHT22;62992;52.052;8.550;2022-11-20T01:07:16;-3.50;99.90
74513;DHT22;62992;52.052;8.550;2022-11-20T01:10:00;-3.50;99.90
74513;DHT22;62992;52.052;8.550;2022-11-20T01:12:44;-3.50;99.90
74513;DHT22;62992;52.052;8.550;2022-11-20T01:15:48;-3.60;99.90
74513;DHT22;62992;52.052;8.550;2022-11-20T01:18:33;-3.50;99.90
74513;DHT22;62992;52.052;8.550;2022-11-20T01:21:20;-3.50;99.90
74513;DHT22;62992;52.052;8.550;2022-11-20T01:24:06;-3.50;99.90
74513;DHT22;62992;52.052;8.550;2022-11-20T01:26:52;-3.60;99.90
74513;DHT22;62992;52.052;8.550;2022-11-20T01:29:36;-3.50;99.90
74513;DHT22;62992;52.052;8.550;2022-11-20T01:32:20;-3.50;99.90
74513;DHT22;62992;52.052;8.550;2022-11-20T01:35:04;-3.50;99.90
74513;DHT22;62992;52.052;8.550;2022-11-20T01:37:50;-3.50;99.90
74513;DHT22;62992;52.052;8.550;2022-11-20T01:40:34;-3.70;99.90
74513;DHT22;62992;52.052;8.550;2022-11-20T01:43:19;-3.70;99.90
74513;DHT22;62992;52.052;8.550;2022-11-20T01:46:16;-3.70;99.90
74513;DHT22;62992;52.052;8.550;2022-11-20T01:49:05;-3.60;99.90
74513;DHT22;62992;52.052;8.550;2022-11-20T01:52:20;-3.60;99.90
74513;DHT22;62992;52.052;8.550;2022-11-20T01:55:07;-3.60;99.90
74513;DHT22;62992;52.052;8.550;2022-11-20T01:57:53;-3.60;99.90
74513;DHT22;62992;52.052;8.550;2022-11-20T02:00:38;-3.70;99.90
74513;DHT22;62992;52.052;8.550;2022-11-20T02:03:23;-3.70;99.90
74513;DHT22;62992;52.052;8.550;2022-11-20T02:06:32;-3.70;99.90
74513;DHT22;62992;52.052;8.550;2022-11-20T02:09:17;-3.70;99.90
74513;DHT22;62992;52.052;8.550;2022-11-20T02:12:01;-3.80;99.90
74513;DHT22;62992;52.052;8.550;2022-11-20T02:14:45;-3.80;99.90
74513;DHT22;62992;52.052;8.550;2022-11-20T02:17:29;-3.80;99.90
74513;DHT22;62992;52.052;8.550;2022-11-20T02:20:13;-3.80;99.90
74513;DHT22;62992;52.052;8.550;2022-11-20T02:23:11;-3.80;99.90
74513;DHT22;62992;52.052;8.550;2022-11-20T02:25:57;-4.00;99.90
74513;DHT22;62992;52.052;8.550;2022-11-20T02:28:42;-4.00;99.90
74513;DHT22;62992;52.052;8.550;2022-11-20T02:31:26;-3.90;99.90
74513;DHT22;62992;52.052;8.550;2022-11-20T02:34:10;-3.90;99.90
74513;DHT22;62992;52.052;8.550;2022-11-20T02:36:55;-3.90;99.90
74513;DHT22;62992;52.052;8.550;2022-11-20T02:39:41;-3.90;99.90
74513;DHT22;62992;52.052;8.550;2022-11-20T02:42:26;-4.00;99.90
74513;DHT22;62992;52.052;8.550;2022-11-20T02:45:11;-4.00;99.90
74513;DHT22;62992;52.052;8.550;2022-11-20T02:47:55;-4.00;99.90
74513;DHT22;62992;52.052;8.550;2022-11-20T02:50:40;-4.00;99.90
74513;DHT22;62992;52.052;8.550;2022-11-20T02:53:24;-4.10;99.90
74513;DHT22;62992;52.052;8.550;2022-11-20T02:56:08;-4.10;99.90
74513;DHT22;62992;52.052;8.550;2022-11-20T02:58:52;-4.10;99.90
74513;DHT22;62992;52.052;8.550;2022-11-20T03:01:36;-4.10;99.90
74513;DHT22;62992;52.052;8.550;2022-11-20T03:04:21;-4.10;99.90
74513;DHT22;62992;52.052;8.550;2022-11-20T03:07:05;-4.00;99.90
74513;DHT22;62992;52.052;8.550;2022-11-20T03:09:49;-4.00;99.90
74513;DHT22;62992;52.052;8.550;2022-11-20T03:12:33;-4.00;99.90
74513;DHT22;62992;52.052;8.550;2022-11-20T03:15:17;-4.00;99.90
74513;DHT22;62992;52.052;8.550;2022-11-20T03:18:01;-4.10;99.90
74513;DHT22;62992;52.052;8.550;2022-11-20T03:20:45;-4.10;99.90
74513;DHT22;62992;52.052;8.550;2022-11-20T03:23:31;-4.20;99.90
74513;DHT22;62992;52.052;8.550;2022-11-20T03:26:19;-4.20;99.90
74513;DHT22;62992;52.052;8.550;2022-11-20T03:29:04;-4.20;99.90
74513;DHT22;62992;52.052;8.550;2022-11-20T03:31:48;-4.20;99.90
74513;DHT22;62992;52.052;8.550;2022-11-20T03:34:32;-4.20;99.90
74513;DHT22;62992;52.052;8.550;2022-11-20T03:37:17;-4.10;99.90
74513;DHT22;62992;52.052;8.550;2022-11-20T03:40:01;-4.20;99.90
74513;DHT22;62992;52.052;8.550;2022-11-20T03:42:45;-4.20;99.90
74513;DHT22;62992;52.052;8.550;2022-11-20T03:45:28;-4.10;99.90
74513;DHT22;62992;52.052;8.550;2022-11-20T03:48:13;-4.10;99.90
74513;DHT22;62992;52.052;8.550;2022-11-20T03:51:08;-4.20;99.90
74513;DHT22;62992;52.052;8.550;2022-11-20T03:53:54;-4.20;99.90
74513;DHT22;62992;52.052;8.550;2022-11-20T03:56:39;-4.20;99.90
74513;DHT22;62992;52.052;8.550;2022-11-20T03:59:23;-4.20;99.90
74513;DHT22;62992;52.052;8.550;2022-11-20T04:02:07;-4.20;99.90
74513;DHT22;62992;52.052;8.550;2022-11-20T04:04:51;-4.30;99.90
74513;DHT22;62992;52.052;8.550;2022-11-20T04:07:35;-4.30;99.90
74513;DHT22;62992;52.052;8.550;2022-11-20T04:10:20;-4.30;99.90
74513;DHT22;62992;52.052;8.550;2022-11-20T04:13:04;-4.20;99.90
74513;DHT22;62992;52.052;8.550;2022-11-20T04:15:48;-4.30;99.90
74513;DHT22;62992;52.052;8.550;2022-11-20T04:18:33;-4.30;99.90
74513;DHT22;62992;52.052;8.550;2022-11-20T04:21:17;-4.30;99.90
74513;DHT22;62992;52.052;8.550;2022-11-20T04:24:01;-4.30;99.90
74513;DHT22;62992;52.052;8.550;2022-11-20T04:26:46;-4.30;99.90
74513;DHT22;62992;52.052;8.550;2022-11-20T04:29:30;-4.30;99.90
74513;DHT22;62992;52.052;8.550;2022-11-20T04:32:14;-4.40;99.90
74513;DHT22;62992;52.052;8.550;2022-11-20T04:34:58;-4.40;99.90
74513;DHT22;62992;52.052;8.550;2022-11-20T04:37:42;-4.40;99.90
74513;DHT22;62992;52.052;8.550;2022-11-20T04:40:27;-4.40;99.90
74513;DHT22;62992;52.052;8.550;2022-11-20T04:43:12;-4.40;99.90
74513;DHT22;62992;52.052;8.550;2022-11-20T04:45:57;-4.40;99.90
74513;DHT22;62992;52.052;8.550;2022-11-20T04:48:41;-4.40;99.90
74513;DHT22;62992;52.052;8.550;2022-11-20T04:51:26;-4.40;99.90
74513;DHT22;62992;52.052;8.550;2022-11-20T04:54:11;-4.50;99.90
74513;DHT22;62992;52.052;8.550;2022-11-20T04:56:56;-4.40;99.90
74513;DHT22;62992;52.052;8.550;2022-11-20T04:59:40;-4.40;99.90
74513;DHT22;62992;52.052;8.550;2022-11-20T05:02:25;-4.40;99.90
74513;DHT22;62992;52.052;8.550;2022-11-20T05:05:09;-4.40;99.90
74513;DHT22;62992;52.052;8.550;2022-11-20T05:07:56;-4.40;99.90
74513;DHT22;62992;52.052;8.550;2022-11-20T05:10:41;-4.40;99.90
74513;DHT22;62992;52.052;8.550;2022-11-20T05:13:25;-4.40;99.90
74513;DHT22;62992;52.052;8.550;2022-11-20T05:16:15;-4.40;99.90
74513;DHT22;62992;52.052;8.550;2022-11-20T05:19:00;-4.50;99.90
74513;DHT22;62992;52.052;8.550;2022-11-20T05:21:44;-4.50;99.90
74513;DHT22;62992;52.052;8.550;2022-11-20T05:24:28;-4.50;99.90
74513;DHT22;62992;52.052;8.550;2022-11-20T05:27:12;-4.50;99.90
74513;DHT22;62992;52.052;8.550;2022-11-20T05:29:56;-4.50;99.90
74513;DHT22;62992;52.052;8.550;2022-11-20T05:32:40;-4.40;99.90
74513;DHT22;62992;52.052;8.550;2022-11-20T05:35:24;-4.40;99.90
74513;DHT22;62992;52.052;8.550;2022-11-20T05:38:08;-4.40;99.90
74513;DHT22;62992;52.052;8.550;2022-11-20T05:40:53;-4.30;99.90
74513;DHT22;62992;52.052;8.550;2022-11-20T05:43:38;-4.40;99.90
74513;DHT22;62992;52.052;8.550;2022-11-20T05:46:23;-4.50;99.90
74513;DHT22;62992;52.052;8.550;2022-11-20T05:49:07;-4.40;99.90
74513;DHT22;62992;52.052;8.550;2022-11-20T05:51:51;-4.40;99.90
74513;DHT22;62992;52.052;8.550;2022-11-20T05:54:35;-4.50;99.90
74513;DHT22;62992;52.052;8.550;2022-11-20T05:57:19;-4.50;99.90
74513;DHT22;62992;52.052;8.550;2022-11-20T06:00:04;-4.40;99.90
74513;DHT22;62992;52.052;8.550;2022-11-20T06:02:48;-4.50;99.90
74513;DHT22;62992;52.052;8.550;2022-11-20T06:05:33;-4.50;99.90
74513;DHT22;62992;52.052;8.550;2022-11-20T06:08:17;-4.50;99.90
74513;DHT22;62992;52.052;8.550;2022-11-20T06:11:05;-4.60;99.90
74513;DHT22;62992;52.052;8.550;2022-11-20T06:13:50;-4.40;99.90
74513;DHT22;62992;52.052;8.550;2022-11-20T06:16:35;-4.40;99.90
74513;DHT22;62992;52.052;8.550;2022-11-20T06:19:19;-4.50;99.90
74513;DHT22;62992;52.052;8.550;2022-11-20T06:22:03;-4.40;99.90
74513;DHT22;62992;52.052;8.550;2022-11-20T06:24:47;-4.50;99.90
74513;DHT22;62992;52.052;8.550;2022-11-20T06:27:31;-4.60;99.90
74513;DHT22;62992;52.052;8.550;2022-11-20T06:30:15;-4.80;99.90
74513;DHT22;62992;52.052;8.550;2022-11-20T06:32:59;-4.80;99.90
74513;DHT22;62992;52.052;8.550;2022-11-20T06:35:43;-4.80;99.90
74513;DHT22;62992;52.052;8.550;2022-11-20T06:38:28;-4.70;99.90
74513;DHT22;62992;52.052;8.550;2022-11-20T06:41:15;-4.50;99.90
74513;DHT22;62992;52.052;8.550;2022-11-20T06:44:00;-4.60;99.90
74513;DHT22;62992;52.052;8.550;2022-11-20T06:46:44;-4.80;99.90
74513;DHT22;62992;52.052;8.550;2022-11-20T06:49:28;-4.70;99.90
74513;DHT22;62992;52.052;8.550;2022-11-20T06:52:12;-4.60;99.90
74513;DHT22;62992;52.052;8.550;2022-11-20T06:54:56;-4.70;99.90
74513;DHT22;62992;52.052;8.550;2022-11-20T06:57:40;-4.60;99.90
74513;DHT22;62992;52.052;8.550;2022-11-20T07:00:24;-4.70;99.90
74513;DHT22;62992;52.052;8.550;2022-11-20T07:03:10;-4.70;99.90
74513;DHT22;62992;52.052;8.550;2022-11-20T07:05:55;-4.60;99.90
74513;DHT22;62992;52.052;8.550;2022-11-20T07:08:40;-4.60;99.90
74513;DHT22;62992;52.052;8.550;2022-11-20T07:11:24;-4.60;99.90
74513;DHT22;62992;52.052;8.550;2022-11-20T07:14:08;-4.60;99.90
74513;DHT22;62992;52.052;8.550;2022-11-20T07:16:52;-4.40;99.90
74513;DHT22;62992;52.052;8.550;2022-11-20T07:19:36;-4.40;99.90
74513;DHT22;62992;52.052;8.550;2022-11-20T07:22:20;-4.40;99.90
74513;DHT22;62992;52.052;8.550;2022-11-20T07:25:06;-4.30;99.90
74513;DHT22;62992;52.052;8.550;2022-11-20T07:27:50;-4.30;99.90
74513;DHT22;62992;52.052;8.550;2022-11-20T07:30:35;-4.30;99.90
74513;DHT22;62992;52.052;8.550;2022-11-20T07:33:19;-4.20;99.90
74513;DHT22;62992;52.052;8.550;2022-11-20T07:36:04;-4.20;99.90
74513;DHT22;62992;52.052;8.550;2022-11-20T07:38:48;-4.20;99.90
74513;DHT22;62992;52.052;8.550;2022-11-20T07:41:32;-4.10;99.90
74513;DHT22;62992;52.052;8.550;2022-11-20T07:44:16;-4.00;99.90
74513;DHT22;62992;52.052;8.550;2022-11-20T07:47:01;-3.80;99.90
74513;DHT22;62992;52.052;8.550;2022-11-20T07:49:45;-3.70;99.90
74513;DHT22;62992;52.052;8.550;2022-11-20T07:52:29;-3.50;99.90
74513;DHT22;62992;52.052;8.550;2022-11-20T07:55:13;-3.40;99.90
74513;DHT22;62992;52.052;8.550;2022-11-20T07:57:58;-3.40;99.90
74513;DHT22;62992;52.052;8.550;2022-11-20T08:00:42;-3.40;99.90
74513;DHT22;62992;52.052;8.550;2022-11-20T08:03:26;-3.30;99.90
74513;DHT22;62992;52.052;8.550;2022-11-20T08:06:10;-3.20;99.90
74513;DHT22;62992;52.052;8.550;2022-11-20T08:08:54;-3.10;99.90
74513;DHT22;62992;52.052;8.550;2022-11-20T08:11:38;-3.00;99.90
74513;DHT22;62992;52.052;8.550;2022-11-20T08:14:41;-3.10;99.90
74513;DHT22;62992;52.052;8.550;2022-11-20T08:17:25;-3.10;99.90
74513;DHT22;62992;52.052;8.550;2022-11-20T08:20:10;-3.10;99.90
74513;DHT22;62992;52.052;8.550;2022-11-20T08:23:01;-3.10;99.90
74513;DHT22;62992;52.052;8.550;2022-11-20T08:25:49;-2.90;99.90
74513;DHT22;62992;52.052;8.550;2022-11-20T08:28:33;-2.70;99.90
74513;DHT22;62992;52.052;8.550;2022-11-20T08:31:17;-2.60;99.90
74513;DHT22;62992;52.052;8.550;2022-11-20T08:34:01;-2.40;99.90
74513;DHT22;62992;52.052;8.550;2022-11-20T08:36:45;-2.30;99.90
74513;DHT22;62992;52.052;8.550;2022-11-20T08:39:29;-2.10;99.90
74513;DHT22;62992;52.052;8.550;2022-11-20T08:42:13;-1.90;99.90
74513;DHT22;62992;52.052;8.550;2022-11-20T08:44:57;-1.80;99.90
74513;DHT22;62992;52.052;8.550;2022-11-20T08:47:42;-1.70;99.90
74513;DHT22;62992;52.052;8.550;2022-11-20T08:50:26;-1.70;99.90
74513;DHT22;62992;52.052;8.550;2022-11-20T08:53:10;-1.60;99.90
74513;DHT22;62992;52.052;8.550;2022-11-20T08:55:56;-1.50;99.90
74513;DHT22;62992;52.052;8.550;2022-11-20T08:58:40;-1.30;99.90
74513;DHT22;62992;52.052;8.550;2022-11-20T09:01:25;-1.10;99.90
74513;DHT22;62992;52.052;8.550;2022-11-20T09:04:09;-0.70;99.90
74513;DHT22;62992;52.052;8.550;2022-11-20T09:06:55;-0.50;99.90
74513;DHT22;62992;52.052;8.550;2022-11-20T09:09:39;-0.10;99.90
74513;DHT22;62992;52.052;8.550;2022-11-20T09:12:23;0.00;99.90
74513;DHT22;62992;52.052;8.550;2022-11-20T09:15:07;0.10;99.90
74513;DHT22;62992;52.052;8.550;2022-11-20T09:17:52;0.30;99.90
74513;DHT22;62992;52.052;8.550;2022-11-20T09:20:37;0.40;99.90
74513;DHT22;62992;52.052;8.550;2022-11-20T09:23:21;0.20;99.90
74513;DHT22;62992;52.052;8.550;2022-11-20T09:26:15;0.20;99.90
74513;DHT22;62992;52.052;8.550;2022-11-20T09:28:59;0.60;99.90
74513;DHT22;62992;52.052;8.550;2022-11-20T09:31:43;1.00;99.90
74513;DHT22;62992;52.052;8.550;2022-11-20T09:34:29;1.00;99.90
74513;DHT22;62992;52.052;8.550;2022-11-20T09:37:13;1.00;99.90
74513;DHT22;62992;52.052;8.550;2022-11-20T09:39:57;0.50;99.90
74513;DHT22;62992;52.052;8.550;2022-11-20T09:42:47;0.50;99.90
74513;DHT22;62992;52.052;8.550;2022-11-20T09:52:04;0.40;99.90
74513;DHT22;62992;52.052;8.550;2022-11-20T09:54:50;0.30;99.90
74513;DHT22;62992;52.052;8.550;2022-11-20T09:57:41;0.20;99.90
74513;DHT22;62992;52.052;8.550;2022-11-20T10:00:28;0.30;99.90
74513;DHT22;62992;52.052;8.550;2022-11-20T10:06:41;0.60;99.90
74513;DHT22;62992;52.052;8.550;2022-11-20T10:09:32;0.50;99.90
74513;DHT22;62992;52.052;8.550;2022-11-20T10:21:16;0.20;99.90
74513;DHT22;62992;52.052;8.550;2022-11-20T10:30:08;1.50;99.90
74513;DHT22;62992;52.052;8.550;2022-11-20T10:32:56;2.50;99.90
74513;DHT22;62992;52.052;8.550;2022-11-20T10:38:40;3.50;99.90
74513;DHT22;62992;52.052;8.550;2022-11-20T10:41:34;3.70;99.90
74513;DHT22;62992;52.052;8.550;2022-11-20T10:44:28;3.30;99.90
74513;DHT22;62992;52.052;8.550;2022-11-20T10:47:32;3.10;99.90
74513;DHT22;62992;52.052;8.550;2022-11-20T10:50:21;2.80;99.90
74513;DHT22;62992;52.052;8.550;2022-11-20T11:01:46;2.00;99.90
74513;DHT22;62992;52.052;8.550;2022-11-20T11:04:44;1.80;99.90
74513;DHT22;62992;52.052;8.550;2022-11-20T11:07:37;1.90;99.90
74513;DHT22;62992;52.052;8.550;2022-11-20T11:13:31;1.90;99.90
74513;DHT22;62992;52.052;8.550;2022-11-20T11:16:22;1.80;99.90
74513;DHT22;62992;52.052;8.550;2022-11-20T11:19:12;1.80;99.90
74513;DHT22;62992;52.052;8.550;2022-11-20T11:21:57;1.90;99.90
74513;DHT22;62992;52.052;8.550;2022-11-20T11:24:52;1.90;99.90
74513;DHT22;62992;52.052;8.550;2022-11-20T11:27:49;2.00;99.90
74513;DHT22;62992;52.052;8.550;2022-11-20T11:30:43;2.00;99.90
74513;DHT22;62992;52.052;8.550;2022-11-20T11:33:30;1.80;99.90
74513;DHT22;62992;52.052;8.550;2022-11-20T11:36:22;1.80;99.90
74513;DHT22;62992;52.052;8.550;2022-11-20T11:39:15;1.80;99.90
74513;DHT22;62992;52.052;8.550;2022-11-20T11:42:00;1.90;99.90
74513;DHT22;62992;52.052;8.550;2022-11-20T11:44:46;1.90;99.90
74513;DHT22;62992;52.052;8.550;2022-11-20T11:47:51;2.10;99.90
74513;DHT22;62992;52.052;8.550;2022-11-20T11:50:35;2.20;99.90
74513;DHT22;62992;52.052;8.550;2022-11-20T11:53:26;2.10;99.90
74513;DHT22;62992;52.052;8.550;2022-11-20T11:56:12;2.10;99.90
74513;DHT22;62992;52.052;8.550;2022-11-20T11:59:00;2.00;99.90
74513;DHT22;62992;52.052;8.550;2022-11-20T12:01:53;2.00;99.90
74513;DHT22;62992;52.052;8.550;2022-11-20T12:04:48;2.10;99.90
74513;DHT22;62992;52.052;8.550;2022-11-20T12:11:23;2.10;99.90
74513;DHT22;62992;52.052;8.550;2022-11-20T12:14:21;2.20;99.90
74513;DHT22;62992;52.052;8.550;2022-11-20T12:17:12;2.30;99.90
74513;DHT22;62992;52.052;8.550;2022-11-20T12:19:57;2.20;99.90
74513;DHT22;62992;52.052;8.550;2022-11-20T12:22:54;2.10;99.90
74513;DHT22;62992;52.052;8.550;2022-11-20T12:25:44;2.00;99.90
74513;DHT22;62992;52.052;8.550;2022-11-20T12:34:40;2.00;99.90
74513;DHT22;62992;52.052;8.550;2022-11-20T12:54:25;2.20;99.90
74513;DHT22;62992;52.052;8.550;2022-11-20T13:06:15;2.30;99.90
74513;DHT22;62992;52.052;8.550;2022-11-20T13:09:01;2.40;99.90
74513;DHT22;62992;52.052;8.550;2022-11-20T13:11:51;2.30;99.90
74513;DHT22;62992;52.052;8.550;2022-11-20T13:14:45;2.30;99.90
74513;DHT22;62992;52.052;8.550;2022-11-20T13:17:40;2.30;99.90
74513;DHT22;62992;52.052;8.550;2022-11-20T13:20:26;2.20;99.90
74513;DHT22;62992;52.052;8.550;2022-11-20T13:23:10;2.10;99.90
74513;DHT22;62992;52.052;8.550;2022-11-20T13:26:06;2.10;99.90
74513;DHT22;62992;52.052;8.550;2022-11-20T13:29:19;2.10;99.90
74513;DHT22;62992;52.052;8.550;2022-11-20T13:35:03;2.10;99.90
74513;DHT22;62992;52.052;8.550;2022-11-20T13:38:09;2.00;99.90
74513;DHT22;62992;52.052;8.550;2022-11-20T13:43:40;2.10;99.90
74513;DHT22;62992;52.052;8.550;2022-11-20T13:46:39;2.10;99.90
74513;DHT22;62992;52.052;8.550;2022-11-20T13:49:57;2.10;99.90
74513;DHT22;62992;52.052;8.550;2022-11-20T13:53:15;2.10;99.90
74513;DHT22;62992;52.052;8.550;2022-11-20T14:02:18;1.90;99.90
74513;DHT22;62992;52.052;8.550;2022-11-20T14:05:04;1.90;99.90
74513;DHT22;62992;52.052;8.550;2022-11-20T14:07:50;1.90;99.90
74513;DHT22;62992;52.052;8.550;2022-11-20T14:10:35;1.90;99.90
74513;DHT22;62992;52.052;8.550;2022-11-20T14:13:23;2.00;99.90
74513;DHT22;62992;52.052;8.550;2022-11-20T14:16:09;2.10;99.90
74513;DHT22;62992;52.052;8.550;2022-11-20T14:18:54;2.10;99.90
74513;DHT22;62992;52.052;8.550;2022-11-20T14:21:38;2.10;99.90
74513;DHT22;62992;52.052;8.550;2022-11-20T14:24:24;2.10;99.90
74513;DHT22;62992;52.052;8.550;2022-11-20T14:27:18;2.10;99.90
74513;DHT22;62992;52.052;8.550;2022-11-20T14:30:03;2.10;99.90
74513;DHT22;62992;52.052;8.550;2022-11-20T14:32:48;2.00;99.90
74513;DHT22;62992;52.052;8.550;2022-11-20T14:35:49;2.00;99.90
74513;DHT22;62992;52.052;8.550;2022-11-20T14:38:34;2.00;99.90
74513;DHT22;62992;52.052;8.550;2022-11-20T14:41:24;1.90;99.90
74513;DHT22;62992;52.052;8.550;2022-11-20T14:44:09;1.90;99.90
74513;DHT22;62992;52.052;8.550;2022-11-20T14:46:55;1.90;99.90
74513;DHT22;62992;52.052;8.550;2022-11-20T14:49:40;1.90;99.90
74513;DHT22;62992;52.052;8.550;2022-11-20T14:52:27;1.90;99.90
74513;DHT22;62992;52.052;8.550;2022-11-20T14:55:13;1.80;99.90
74513;DHT22;62992;52.052;8.550;2022-11-20T14:58:22;1.80;99.90
74513;DHT22;62992;52.052;8.550;2022-11-20T15:01:11;1.80;99.90
74513;DHT22;62992;52.052;8.550;2022-11-20T15:04:10;1.80;99.90
74513;DHT22;62992;52.052;8.550;2022-11-20T15:06:56;1.70;99.90
74513;DHT22;62992;52.052;8.550;2022-11-20T15:09:41;1.70;99.90
74513;DHT22;62992;52.052;8.550;2022-11-20T15:12:25;1.60;99.90
74513;DHT22;62992;52.052;8.550;2022-11-20T15:15:12;1.50;99.90
74513;DHT22;62992;52.052;8.550;2022-11-20T15:17:58;1.40;99.90
74513;DHT22;62992;52.052;8.550;2022-11-20T15:20:44;1.40;99.90
74513;DHT22;62992;52.052;8.550;2022-11-20T15:23:29;1.30;99.90
74513;DHT22;62992;52.052;8.550;2022-11-20T15:26:22;1.50;99.90
74513;DHT22;62992;52.052;8.550;2022-11-20T15:29:12;1.50;99.90
74513;DHT22;62992;52.052;8.550;2022-11-20T15:31:56;1.50;99.90
74513;DHT22;62992;52.052;8.550;2022-11-20T15:34:40;1.70;99.90
74513;DHT22;62992;52.052;8.550;2022-11-20T15:37:25;1.80;99.90
74513;DHT22;62992;52.052;8.550;2022-11-20T15:40:09;1.70;99.90
74513;DHT22;62992;52.052;8.550;2022-11-20T15:42:54;1.70;99.90
74513;DHT22;62992;52.052;8.550;2022-11-20T15:45:58;1.60;99.90
74513;DHT22;62992;52.052;8.550;2022-11-20T15:48:44;1.60;99.90
74513;DHT22;62992;52.052;8.550;2022-11-20T15:51:34;1.40;99.90
74513;DHT22;62992;52.052;8.550;2022-11-20T15:54:21;1.20;99.90
74513;DHT22;62992;52.052;8.550;2022-11-20T15:57:06;1.20;99.90
74513;DHT22;62992;52.052;8.550;2022-11-20T15:59:50;1.20;99.90
74513;DHT22;62992;52.052;8.550;2022-11-20T16:02:34;1.30;99.90
74513;DHT22;62992;52.052;8.550;2022-11-20T16:05:18;1.30;99.90
74513;DHT22;62992;52.052;8.550;2022-11-20T16:08:03;1.30;99.90
74513;DHT22;62992;52.052;8.550;2022-11-20T16:10:47;1.20;99.90
74513;DHT22;62992;52.052;8.550;2022-11-20T16:13:32;1.20;99.90
74513;DHT22;62992;52.052;8.550;2022-11-20T16:16:37;1.30;99.90
74513;DHT22;62992;52.052;8.550;2022-11-20T16:19:22;1.30;99.90
74513;DHT22;62992;52.052;8.550;2022-11-20T16:22:09;1.30;99.90
74513;DHT22;62992;52.052;8.550;2022-11-20T16:24:54;1.30;99.90
74513;DHT22;62992;52.052;8.550;2022-11-20T16:27:38;1.20;99.90
74513;DHT22;62992;52.052;8.550;2022-11-20T16:30:23;1.20;99.90
74513;DHT22;62992;52.052;8.550;2022-11-20T16:33:12;1.20;99.90
74513;DHT22;62992;52.052;8.550;2022-11-20T16:35:56;1.30;99.90
74513;DHT22;62992;52.052;8.550;2022-11-20T16:38:41;1.30;99.90
74513;DHT22;62992;52.052;8.550;2022-11-20T16:41:26;1.20;99.90
74513;DHT22;62992;52.052;8.550;2022-11-20T16:44:11;1.20;99.90
74513;DHT22;62992;52.052;8.550;2022-11-20T16:46:55;1.20;99.90
74513;DHT22;62992;52.052;8.550;2022-11-20T16:49:39;1.20;99.90
74513;DHT22;62992;52.052;8.550;2022-11-20T16:52:23;1.30;99.90
74513;DHT22;62992;52.052;8.550;2022-11-20T16:55:07;1.30;99.90
74513;DHT22;62992;52.052;8.550;2022-11-20T16:57:51;1.30;99.90
74513;DHT22;62992;52.052;8.550;2022-11-20T17:00:37;1.20;99.90
74513;DHT22;62992;52.052;8.550;2022-11-20T17:03:21;1.30;99.90
74513;DHT22;62992;52.052;8.550;2022-11-20T17:06:16;1.30;99.90
74513;DHT22;62992;52.052;8.550;2022-11-20T17:09:01;1.30;99.90
74513;DHT22;62992;52.052;8.550;2022-11-20T17:11:47;1.30;99.90
74513;DHT22;62992;52.052;8.550;2022-11-20T17:14:31;1.30;99.90
74513;DHT22;62992;52.052;8.550;2022-11-20T17:17:16;1.20;99.90
74513;DHT22;62992;52.052;8.550;2022-11-20T17:20:00;1.30;99.90
74513;DHT22;62992;52.052;8.550;2022-11-20T17:22:44;1.30;99.90
74513;DHT22;62992;52.052;8.550;2022-11-20T17:25:31;1.20;99.90
74513;DHT22;62992;52.052;8.550;2022-11-20T17:28:16;1.30;99.90
74513;DHT22;62992;52.052;8.550;2022-11-20T17:31:01;1.30;99.90
74513;DHT22;62992;52.052;8.550;2022-11-20T17:33:46;1.30;99.90
74513;DHT22;62992;52.052;8.550;2022-11-20T17:36:31;1.20;99.90
74513;DHT22;62992;52.052;8.550;2022-11-20T17:39:16;1.30;99.90
74513;DHT22;62992;52.052;8.550;2022-11-20T17:42:00;1.30;99.90
74513;DHT22;62992;52.052;8.550;2022-11-20T17:45:04;1.20;99.90
74513;DHT22;62992;52.052;8.550;2022-11-20T17:47:48;1.20;99.90
74513;DHT22;62992;52.052;8.550;2022-11-20T17:50:32;1.20;99.90
74513;DHT22;62992;52.052;8.550;2022-11-20T17:53:16;1.20;99.90
74513;DHT22;62992;52.052;8.550;2022-11-20T17:56:00;1.20;99.90
74513;DHT22;62992;52.052;8.550;2022-11-20T17:59:05;1.20;99.90
74513;DHT22;62992;52.052;8.550;2022-11-20T18:01:50;1.20;99.90
74513;DHT22;62992;52.052;8.550;2022-11-20T18:04:34;1.10;99.90
74513;DHT22;62992;52.052;8.550;2022-11-20T18:07:18;1.10;99.90
74513;DHT22;62992;52.052;8.550;2022-11-20T18:10:02;1.10;99.90
74513;DHT22;62992;52.052;8.550;2022-11-20T18:12:47;1.10;99.90
74513;DHT22;62992;52.052;8.550;2022-11-20T18:15:31;1.10;99.90
74513;DHT22;62992;52.052;8.550;2022-11-20T18:18:16;1.10;99.90
74513;DHT22;62992;52.052;8.550;2022-11-20T18:21:00;1.10;99.90
74513;DHT22;62992;52.052;8.550;2022-11-20T18:23:44;1.10;99.90
74513;DHT22;62992;52.052;8.550;2022-11-20T18:26:28;1.10;99.90
74513;DHT22;62992;52.052;8.550;2022-11-20T18:29:13;1.10;99.90
74513;DHT22;62992;52.052;8.550;2022-11-20T18:31:58;1.10;99.90
74513;DHT22;62992;52.052;8.550;2022-11-20T18:34:42;1.10;99.90
74513;DHT22;62992;52.052;8.550;2022-11-20T18:37:27;1.00;99.90
74513;DHT22;62992;52.052;8.550;2022-11-20T18:40:12;1.00;99.90
74513;DHT22;62992;52.052;8.550;2022-11-20T18:42:56;1.10;99.90
74513;DHT22;62992;52.052;8.550;2022-11-20T18:46:03;1.00;99.90
74513;DHT22;62992;52.052;8.550;2022-11-20T18:48:47;1.00;99.90
74513;DHT22;62992;52.052;8.550;2022-11-20T18:51:31;1.00;99.90
74513;DHT22;62992;52.052;8.550;2022-11-20T18:54:15;0.90;99.90
74513;DHT22;62992;52.052;8.550;2022-11-20T18:56:59;0.90;99.90
74513;DHT22;62992;52.052;8.550;2022-11-20T18:59:43;0.90;99.90
74513;DHT22;62992;52.052;8.550;2022-11-20T19:02:28;0.80;99.90
74513;DHT22;62992;52.052;8.550;2022-11-20T19:05:13;0.70;99.90
74513;DHT22;62992;52.052;8.550;2022-11-20T19:07:57;0.70;99.90